sensor_id;sensor_type;location;lat;lon;timestamp;pressure;altitude;pressure_sealevel;temperature;humidity
56912;BME280;42800;53.928;27.662;2022-09-23T00:00:39;99269.75;;;8.97;100.00
56912;BME280;42800;53.928;27.662;2022-09-23T00:03:05;99280.97;;;9.08;100.00
56912;BME280;42800;53.928;27.662;2022-09-23T00:05:32;99288.72;;;9.06;100.00
56912;BME280;42800;53.928;27.662;2022-09-23T00:07:58;99305.03;;;9.02;100.00
56912;BME280;42800;53.928;27.662;2022-09-23T00:10:27;99304.66;;;8.88;100.00
56912;BME280;42800;53.928;27.662;2022-09-23T00:12:56;99306.66;;;8.75;100.00
56912;BME280;42800;53.928;27.662;2022-09-23T00:15:24;99287.94;;;9.21;100.00
56912;BME280;42800;53.928;27.662;2022-09-23T00:17:50;99301.44;;;9.14;100.00
56912;BME280;42800;53.928;27.662;2022-09-23T00:20:17;99308.41;;;9.27;100.00
56912;BME280;42800;53.928;27.662;2022-09-23T00:22:43;99316.97;;;9.26;100.00
56912;BME280;42800;53.928;27.662;2022-09-23T00:25:10;99327.00;;;9.06;100.00
56912;BME280;42800;53.928;27.662;2022-09-23T00:27:37;99323.66;;;8.97;100.00
56912;BME280;42800;53.928;27.662;2022-09-23T00:30:06;99313.41;;;8.93;100.00
56912;BME280;42800;53.928;27.662;2022-09-23T00:32:33;99304.25;;;9.17;100.00
56912;BME280;42800;53.928;27.662;2022-09-23T00:35:00;99308.81;;;8.98;100.00
56912;BME280;42800;53.928;27.662;2022-09-23T00:37:28;99312.38;;;9.14;100.00
56912;BME280;42800;53.928;27.662;2022-09-23T00:39:55;99307.34;;;9.16;100.00
56912;BME280;42800;53.928;27.662;2022-09-23T00:42:22;99307.72;;;9.30;100.00
56912;BME280;42800;53.928;27.662;2022-09-23T00:44:51;99322.34;;;9.38;100.00
56912;BME280;42800;53.928;27.662;2022-09-23T00:47:20;99331.53;;;9.30;100.00
56912;BME280;42800;53.928;27.662;2022-09-23T00:49:52;99330.22;;;9.24;100.00
56912;BME280;42800;53.928;27.662;2022-09-23T00:52:22;99319.28;;;9.24;100.00
56912;BME280;42800;53.928;27.662;2022-09-23T00:54:50;99317.31;;;9.08;100.00
56912;BME280;42800;53.928;27.662;2022-09-23T00:57:19;99311.38;;;9.06;100.00
56912;BME280;42800;53.928;27.662;2022-09-23T00:59:47;99310.16;;;9.19;100.00
56912;BME280;42800;53.928;27.662;2022-09-23T01:02:15;99319.59;;;9.22;100.00
56912;BME280;42800;53.928;27.662;2022-09-23T01:04:42;99317.03;;;8.98;100.00
56912;BME280;42800;53.928;27.662;2022-09-23T01:07:09;99309.88;;;9.09;100.00
56912;BME280;42800;53.928;27.662;2022-09-23T01:09:35;99304.69;;;9.19;100.00
56912;BME280;42800;53.928;27.662;2022-09-23T01:12:08;99303.97;;;9.23;100.00
56912;BME280;42800;53.928;27.662;2022-09-23T01:14:44;99313.88;;;9.27;100.00
56912;BME280;42800;53.928;27.662;2022-09-23T01:17:18;99322.94;;;9.15;100.00
56912;BME280;42800;53.928;27.662;2022-09-23T01:20:24;99313.97;;;9.15;100.00
56912;BME280;42800;53.928;27.662;2022-09-23T01:23:01;99319.13;;;8.88;100.00
56912;BME280;42800;53.928;27.662;2022-09-23T01:25:47;99300.16;;;8.95;100.00
56912;BME280;42800;53.928;27.662;2022-09-23T01:28:31;99306.75;;;8.79;100.00
56912;BME280;42800;53.928;27.662;2022-09-23T01:31:08;99279.69;;;8.89;100.00
56912;BME280;42800;53.928;27.662;2022-09-23T01:33:39;99284.56;;;8.96;100.00
56912;BME280;42800;53.928;27.662;2022-09-23T01:36:17;99274.94;;;9.02;100.00
56912;BME280;42800;53.928;27.662;2022-09-23T01:38:53;99284.63;;;8.84;100.00
56912;BME280;42800;53.928;27.662;2022-09-23T01:41:33;99276.16;;;8.89;100.00
56912;BME280;42800;53.928;27.662;2022-09-23T01:44:09;99275.81;;;8.90;100.00
56912;BME280;42800;53.928;27.662;2022-09-23T01:46:42;99282.81;;;9.04;100.00
56912;BME280;42800;53.928;27.662;2022-09-23T01:49:15;99291.44;;;8.90;100.00
56912;BME280;42800;53.928;27.662;2022-09-23T01:51:48;99281.28;;;8.90;100.00
56912;BME280;42800;53.928;27.662;2022-09-23T01:54:18;99292.13;;;8.87;100.00
56912;BME280;42800;53.928;27.662;2022-09-23T01:56:49;99283.41;;;8.81;100.00
56912;BME280;42800;53.928;27.662;2022-09-23T01:59:20;99277.06;;;8.93;100.00
56912;BME280;42800;53.928;27.662;2022-09-23T02:01:54;99276.59;;;8.75;100.00
56912;BME280;42800;53.928;27.662;2022-09-23T02:04:26;99264.59;;;8.64;100.00
56912;BME280;42800;53.928;27.662;2022-09-23T02:06:58;99258.44;;;8.83;100.00
56912;BME280;42800;53.928;27.662;2022-09-23T02:09:30;99253.16;;;8.90;100.00
56912;BME280;42800;53.928;27.662;2022-09-23T02:12:00;99257.22;;;8.80;100.00
56912;BME280;42800;53.928;27.662;2022-09-23T02:14:32;99275.19;;;8.81;100.00
56912;BME280;42800;53.928;27.662;2022-09-23T02:17:06;99276.88;;;9.02;100.00
56912;BME280;42800;53.928;27.662;2022-09-23T02:19:38;99287.47;;;8.87;100.00
56912;BME280;42800;53.928;27.662;2022-09-23T02:22:11;99286.31;;;8.88;100.00
56912;BME280;42800;53.928;27.662;2022-09-23T02:24:40;99288.97;;;9.01;100.00
56912;BME280;42800;53.928;27.662;2022-09-23T02:27:13;99302.66;;;9.01;100.00
56912;BME280;42800;53.928;27.662;2022-09-23T02:29:48;99291.22;;;8.83;100.00
56912;BME280;42800;53.928;27.662;2022-09-23T02:32:22;99282.28;;;8.98;100.00
56912;BME280;42800;53.928;27.662;2022-09-23T02:34:56;99280.25;;;9.11;100.00
56912;BME280;42800;53.928;27.662;2022-09-23T02:37:29;99280.59;;;9.09;100.00
56912;BME280;42800;53.928;27.662;2022-09-23T02:40:02;99289.31;;;8.99;100.00
56912;BME280;42800;53.928;27.662;2022-09-23T02:42:38;99306.78;;;8.94;100.00
56912;BME280;42800;53.928;27.662;2022-09-23T02:45:08;99291.63;;;8.97;100.00
56912;BME280;42800;53.928;27.662;2022-09-23T02:47:37;99297.19;;;9.01;100.00
56912;BME280;42800;53.928;27.662;2022-09-23T02:50:07;99293.03;;;9.23;100.00
56912;BME280;42800;53.928;27.662;2022-09-23T02:52:34;99311.97;;;9.00;100.00
56912;BME280;42800;53.928;27.662;2022-09-23T02:55:03;99309.53;;;8.94;100.00
56912;BME280;42800;53.928;27.662;2022-09-23T02:57:29;99308.66;;;9.06;100.00
56912;BME280;42800;53.928;27.662;2022-09-23T02:59:55;99316.50;;;9.08;100.00
56912;BME280;42800;53.928;27.662;2022-09-23T03:02:54;99309.25;;;9.00;100.00
56912;BME280;42800;53.928;27.662;2022-09-23T03:05:26;99310.69;;;9.09;100.00
56912;BME280;42800;53.928;27.662;2022-09-23T03:08:06;99317.41;;;9.28;100.00
56912;BME280;42800;53.928;27.662;2022-09-23T03:10:44;99320.13;;;9.12;100.00
56912;BME280;42800;53.928;27.662;2022-09-23T03:13:26;99305.63;;;8.95;100.00
56912;BME280;42800;53.928;27.662;2022-09-23T03:16:00;99298.81;;;8.89;100.00
56912;BME280;42800;53.928;27.662;2022-09-23T03:18:34;99299.56;;;9.02;100.00
56912;BME280;42800;53.928;27.662;2022-09-23T03:21:05;99300.25;;;8.83;100.00
56912;BME280;42800;53.928;27.662;2022-09-23T03:23:34;99301.16;;;9.03;100.00
56912;BME280;42800;53.928;27.662;2022-09-23T03:26:07;99305.91;;;8.62;100.00
56912;BME280;42800;53.928;27.662;2022-09-23T03:28:35;99277.25;;;9.00;100.00
56912;BME280;42800;53.928;27.662;2022-09-23T03:31:02;99286.75;;;9.06;100.00
56912;BME280;42800;53.928;27.662;2022-09-23T03:33:31;99295.91;;;8.82;100.00
56912;BME280;42800;53.928;27.662;2022-09-23T03:36:01;99289.75;;;8.85;100.00
56912;BME280;42800;53.928;27.662;2022-09-23T03:38:48;99271.66;;;8.81;100.00
56912;BME280;42800;53.928;27.662;2022-09-23T03:41:20;99279.38;;;9.07;100.00
56912;BME280;42800;53.928;27.662;2022-09-23T03:43:49;99289.00;;;8.57;100.00
56912;BME280;42800;53.928;27.662;2022-09-23T03:46:17;99268.16;;;8.80;100.00
56912;BME280;42800;53.928;27.662;2022-09-23T03:48:44;99278.38;;;8.99;100.00
56912;BME280;42800;53.928;27.662;2022-09-23T03:51:19;99291.16;;;8.95;100.00
56912;BME280;42800;53.928;27.662;2022-09-23T03:53:46;99291.25;;;8.99;100.00
56912;BME280;42800;53.928;27.662;2022-09-23T03:56:13;99299.66;;;9.06;100.00
56912;BME280;42800;53.928;27.662;2022-09-23T03:58:39;99305.81;;;9.03;100.00
56912;BME280;42800;53.928;27.662;2022-09-23T04:01:05;99319.06;;;9.01;100.00
56912;BME280;42800;53.928;27.662;2022-09-23T04:03:31;99322.03;;;8.95;100.00
56912;BME280;42800;53.928;27.662;2022-09-23T04:05:58;99320.72;;;9.05;100.00
56912;BME280;42800;53.928;27.662;2022-09-23T04:08:25;99343.16;;;8.67;100.00
56912;BME280;42800;53.928;27.662;2022-09-23T04:10:51;99303.41;;;8.85;100.00
56912;BME280;42800;53.928;27.662;2022-09-23T04:13:17;99299.06;;;8.68;100.00
56912;BME280;42800;53.928;27.662;2022-09-23T04:15:44;99295.56;;;8.84;100.00
56912;BME280;42800;53.928;27.662;2022-09-23T04:18:10;99271.41;;;8.86;100.00
56912;BME280;42800;53.928;27.662;2022-09-23T04:20:38;99287.19;;;8.77;100.00
56912;BME280;42800;53.928;27.662;2022-09-23T04:23:05;99278.81;;;8.85;100.00
56912;BME280;42800;53.928;27.662;2022-09-23T04:25:31;99287.13;;;9.05;100.00
56912;BME280;42800;53.928;27.662;2022-09-23T04:27:57;99299.31;;;9.07;100.00
56912;BME280;42800;53.928;27.662;2022-09-23T04:30:23;99300.91;;;9.08;100.00
56912;BME280;42800;53.928;27.662;2022-09-23T04:32:51;99314.84;;;8.75;100.00
56912;BME280;42800;53.928;27.662;2022-09-23T04:35:17;99316.06;;;8.90;100.00
56912;BME280;42800;53.928;27.662;2022-09-23T04:37:46;99314.34;;;8.85;100.00
56912;BME280;42800;53.928;27.662;2022-09-23T04:40:13;99298.91;;;8.77;100.00
56912;BME280;42800;53.928;27.662;2022-09-23T04:42:39;99299.13;;;9.00;100.00
56912;BME280;42800;53.928;27.662;2022-09-23T04:45:06;99310.41;;;8.99;100.00
56912;BME280;42800;53.928;27.662;2022-09-23T04:47:33;99311.91;;;9.12;100.00
56912;BME280;42800;53.928;27.662;2022-09-23T04:49:59;99321.22;;;9.23;100.00
56912;BME280;42800;53.928;27.662;2022-09-23T04:52:25;99328.88;;;9.17;100.00
56912;BME280;42800;53.928;27.662;2022-09-23T04:54:52;99329.47;;;9.11;100.00
56912;BME280;42800;53.928;27.662;2022-09-23T04:57:18;99332.31;;;9.14;100.00
56912;BME280;42800;53.928;27.662;2022-09-23T04:59:45;99337.59;;;9.07;100.00
56912;BME280;42800;53.928;27.662;2022-09-23T05:02:11;99329.06;;;9.25;100.00
56912;BME280;42800;53.928;27.662;2022-09-23T05:04:37;99333.38;;;9.10;100.00
56912;BME280;42800;53.928;27.662;2022-09-23T05:07:04;99325.13;;;8.94;100.00
56912;BME280;42800;53.928;27.662;2022-09-23T05:09:30;99322.13;;;8.99;100.00
56912;BME280;42800;53.928;27.662;2022-09-23T05:11:56;99323.13;;;9.07;100.00
56912;BME280;42800;53.928;27.662;2022-09-23T05:14:23;99328.50;;;9.19;100.00
56912;BME280;42800;53.928;27.662;2022-09-23T05:16:49;99336.47;;;9.24;100.00
56912;BME280;42800;53.928;27.662;2022-09-23T05:19:16;99345.56;;;9.28;100.00
56912;BME280;42800;53.928;27.662;2022-09-23T05:21:42;99340.44;;;9.42;100.00
56912;BME280;42800;53.928;27.662;2022-09-23T05:24:08;99348.84;;;9.34;100.00
56912;BME280;42800;53.928;27.662;2022-09-23T05:26:36;99353.00;;;9.43;100.00
56912;BME280;42800;53.928;27.662;2022-09-23T05:29:03;99358.91;;;9.61;100.00
56912;BME280;42800;53.928;27.662;2022-09-23T05:31:30;99375.84;;;9.51;100.00
56912;BME280;42800;53.928;27.662;2022-09-23T05:33:57;99380.88;;;9.65;100.00
56912;BME280;42800;53.928;27.662;2022-09-23T05:36:25;99388.56;;;9.59;100.00
56912;BME280;42800;53.928;27.662;2022-09-23T05:38:52;99382.06;;;9.80;100.00
56912;BME280;42800;53.928;27.662;2022-09-23T05:41:19;99405.88;;;9.63;100.00
56912;BME280;42800;53.928;27.662;2022-09-23T05:43:47;99405.59;;;9.53;100.00
56912;BME280;42800;53.928;27.662;2022-09-23T05:46:16;99413.91;;;9.72;100.00
56912;BME280;42800;53.928;27.662;2022-09-23T05:48:43;99429.34;;;9.49;100.00
56912;BME280;42800;53.928;27.662;2022-09-23T05:51:13;99434.47;;;9.66;100.00
56912;BME280;42800;53.928;27.662;2022-09-23T05:53:40;99438.72;;;9.79;100.00
56912;BME280;42800;53.928;27.662;2022-09-23T05:56:09;99456.22;;;9.75;100.00
56912;BME280;42800;53.928;27.662;2022-09-23T05:58:36;99452.88;;;9.81;100.00
56912;BME280;42800;53.928;27.662;2022-09-23T06:01:08;99452.44;;;9.95;100.00
56912;BME280;42800;53.928;27.662;2022-09-23T06:03:34;99454.47;;;9.82;100.00
56912;BME280;42800;53.928;27.662;2022-09-23T06:06:01;99452.59;;;9.71;100.00
56912;BME280;42800;53.928;27.662;2022-09-23T06:08:28;99448.91;;;9.95;100.00
56912;BME280;42800;53.928;27.662;2022-09-23T06:10:54;99468.56;;;10.64;100.00
56912;BME280;42800;53.928;27.662;2022-09-23T06:13:21;99498.47;;;10.21;100.00
56912;BME280;42800;53.928;27.662;2022-09-23T06:15:47;99493.63;;;10.14;100.00
56912;BME280;42800;53.928;27.662;2022-09-23T06:18:13;99510.84;;;10.15;100.00
56912;BME280;42800;53.928;27.662;2022-09-23T06:20:39;99502.59;;;9.99;100.00
56912;BME280;42800;53.928;27.662;2022-09-23T06:23:08;99495.91;;;9.97;100.00
56912;BME280;42800;53.928;27.662;2022-09-23T06:25:35;99496.50;;;9.74;100.00
56912;BME280;42800;53.928;27.662;2022-09-23T06:28:03;99483.09;;;9.85;100.00
56912;BME280;42800;53.928;27.662;2022-09-23T06:30:29;99475.84;;;9.77;100.00
56912;BME280;42800;53.928;27.662;2022-09-23T06:32:56;99465.69;;;10.09;100.00
56912;BME280;42800;53.928;27.662;2022-09-23T06:35:24;99476.75;;;9.97;100.00
56912;BME280;42800;53.928;27.662;2022-09-23T06:37:51;99474.78;;;9.81;100.00
56912;BME280;42800;53.928;27.662;2022-09-23T06:40:18;99490.66;;;9.76;100.00
56912;BME280;42800;53.928;27.662;2022-09-23T06:42:44;99483.81;;;10.29;100.00
56912;BME280;42800;53.928;27.662;2022-09-23T06:45:13;99487.88;;;10.35;100.00
56912;BME280;42800;53.928;27.662;2022-09-23T06:47:39;99492.31;;;10.40;100.00
56912;BME280;42800;53.928;27.662;2022-09-23T06:50:07;99506.69;;;10.53;100.00
56912;BME280;42800;53.928;27.662;2022-09-23T06:52:34;99504.91;;;10.76;100.00
56912;BME280;42800;53.928;27.662;2022-09-23T06:55:00;99513.94;;;10.61;100.00
56912;BME280;42800;53.928;27.662;2022-09-23T06:57:28;99519.41;;;10.61;100.00
56912;BME280;42800;53.928;27.662;2022-09-23T06:59:54;99515.13;;;10.28;100.00
56912;BME280;42800;53.928;27.662;2022-09-23T07:02:22;99515.47;;;10.27;100.00
56912;BME280;42800;53.928;27.662;2022-09-23T07:04:49;99510.69;;;10.24;100.00
56912;BME280;42800;53.928;27.662;2022-09-23T07:07:16;99515.28;;;10.35;100.00
56912;BME280;42800;53.928;27.662;2022-09-23T07:09:43;99512.94;;;10.69;100.00
56912;BME280;42800;53.928;27.662;2022-09-23T07:12:09;99506.56;;;10.81;100.00
56912;BME280;42800;53.928;27.662;2022-09-23T07:14:36;99503.75;;;10.62;100.00
56912;BME280;42800;53.928;27.662;2022-09-23T07:17:02;99511.63;;;10.16;100.00
56912;BME280;42800;53.928;27.662;2022-09-23T07:19:29;99519.06;;;10.15;100.00
56912;BME280;42800;53.928;27.662;2022-09-23T07:21:55;99507.06;;;10.04;100.00
56912;BME280;42800;53.928;27.662;2022-09-23T07:24:21;99505.63;;;9.94;100.00
56912;BME280;42800;53.928;27.662;2022-09-23T07:26:48;99496.09;;;10.04;100.00
56912;BME280;42800;53.928;27.662;2022-09-23T07:29:14;99500.25;;;10.29;100.00
56912;BME280;42800;53.928;27.662;2022-09-23T07:31:41;99515.63;;;10.18;100.00
56912;BME280;42800;53.928;27.662;2022-09-23T07:34:09;99504.53;;;10.27;100.00
56912;BME280;42800;53.928;27.662;2022-09-23T07:36:36;99498.03;;;10.67;100.00
56912;BME280;42800;53.928;27.662;2022-09-23T07:39:06;99504.97;;;10.80;100.00
56912;BME280;42800;53.928;27.662;2022-09-23T07:41:33;99513.69;;;10.50;100.00
56912;BME280;42800;53.928;27.662;2022-09-23T07:44:00;99514.66;;;10.42;100.00
56912;BME280;42800;53.928;27.662;2022-09-23T07:46:29;99513.34;;;10.20;100.00
56912;BME280;42800;53.928;27.662;2022-09-23T07:48:56;99505.88;;;10.52;100.00
56912;BME280;42800;53.928;27.662;2022-09-23T07:51:24;99510.50;;;10.64;100.00
56912;BME280;42800;53.928;27.662;2022-09-23T07:53:54;99511.47;;;10.56;100.00
56912;BME280;42800;53.928;27.662;2022-09-23T07:56:24;99514.88;;;10.69;100.00
56912;BME280;42800;53.928;27.662;2022-09-23T07:58:50;99517.56;;;10.49;100.00
56912;BME280;42800;53.928;27.662;2022-09-23T08:01:25;99516.00;;;10.32;100.00
56912;BME280;42800;53.928;27.662;2022-09-23T08:03:51;99512.03;;;10.30;100.00
56912;BME280;42800;53.928;27.662;2022-09-23T08:06:18;99516.34;;;10.47;100.00
56912;BME280;42800;53.928;27.662;2022-09-23T08:08:45;99511.16;;;10.77;100.00
56912;BME280;42800;53.928;27.662;2022-09-23T08:11:12;99518.56;;;10.57;100.00
56912;BME280;42800;53.928;27.662;2022-09-23T08:13:38;99516.75;;;10.65;100.00
56912;BME280;42800;53.928;27.662;2022-09-23T08:16:05;99514.56;;;10.70;100.00
56912;BME280;42800;53.928;27.662;2022-09-23T08:18:31;99517.16;;;10.31;100.00
56912;BME280;42800;53.928;27.662;2022-09-23T08:20:58;99518.03;;;10.35;100.00
56912;BME280;42800;53.928;27.662;2022-09-23T08:23:25;99515.28;;;10.51;100.00
56912;BME280;42800;53.928;27.662;2022-09-23T08:25:56;99506.03;;;10.75;100.00
56912;BME280;42800;53.928;27.662;2022-09-23T08:28:23;99503.22;;;10.72;100.00
56912;BME280;42800;53.928;27.662;2022-09-23T08:30:51;99501.72;;;10.74;100.00
56912;BME280;42800;53.928;27.662;2022-09-23T08:33:17;99501.31;;;10.92;100.00
56912;BME280;42800;53.928;27.662;2022-09-23T08:35:43;99494.81;;;10.65;100.00
56912;BME280;42800;53.928;27.662;2022-09-23T08:38:10;99485.88;;;10.68;100.00
56912;BME280;42800;53.928;27.662;2022-09-23T08:40:39;99463.56;;;10.50;100.00
56912;BME280;42800;53.928;27.662;2022-09-23T08:43:10;99482.28;;;10.64;100.00
56912;BME280;42800;53.928;27.662;2022-09-23T08:45:40;99461.66;;;10.70;100.00
56912;BME280;42800;53.928;27.662;2022-09-23T08:48:11;99474.22;;;10.71;100.00
56912;BME280;42800;53.928;27.662;2022-09-23T08:50:41;99435.91;;;10.74;100.00
56912;BME280;42800;53.928;27.662;2022-09-23T08:53:14;99394.63;;;10.87;100.00
56912;BME280;42800;53.928;27.662;2022-09-23T08:55:48;99403.34;;;10.92;100.00
56912;BME280;42800;53.928;27.662;2022-09-23T08:58:40;99371.72;;;11.18;100.00
56912;BME280;42800;53.928;27.662;2022-09-23T09:01:15;99379.50;;;11.16;100.00
56912;BME280;42800;53.928;27.662;2022-09-23T09:03:45;99377.53;;;10.93;100.00
56912;BME280;42800;53.928;27.662;2022-09-23T09:06:17;99406.19;;;10.76;100.00
56912;BME280;42800;53.928;27.662;2022-09-23T09:08:51;99415.75;;;10.86;100.00
56912;BME280;42800;53.928;27.662;2022-09-23T09:11:22;99389.41;;;10.81;100.00
56912;BME280;42800;53.928;27.662;2022-09-23T09:13:59;99389.50;;;10.85;100.00
56912;BME280;42800;53.928;27.662;2022-09-23T09:16:45;99364.59;;;10.55;100.00
56912;BME280;42800;53.928;27.662;2022-09-23T09:19:18;99359.25;;;11.01;100.00
56912;BME280;42800;53.928;27.662;2022-09-23T09:21:46;99385.16;;;11.03;100.00
56912;BME280;42800;53.928;27.662;2022-09-23T09:24:17;99404.88;;;10.90;100.00
56912;BME280;42800;53.928;27.662;2022-09-23T09:26:45;99368.03;;;11.10;100.00
56912;BME280;42800;53.928;27.662;2022-09-23T09:29:15;99376.41;;;10.98;100.00
56912;BME280;42800;53.928;27.662;2022-09-23T09:31:43;99351.34;;;10.99;100.00
56912;BME280;42800;53.928;27.662;2022-09-23T09:34:13;99369.69;;;10.95;100.00
56912;BME280;42800;53.928;27.662;2022-09-23T09:36:47;99377.91;;;11.15;100.00
56912;BME280;42800;53.928;27.662;2022-09-23T09:39:15;99390.06;;;10.94;100.00
56912;BME280;42800;53.928;27.662;2022-09-23T09:41:46;99368.66;;;10.80;100.00
56912;BME280;42800;53.928;27.662;2022-09-23T09:44:21;99373.91;;;10.70;100.00
56912;BME280;42800;53.928;27.662;2022-09-23T09:46:54;99384.38;;;11.26;100.00
56912;BME280;42800;53.928;27.662;2022-09-23T09:49:31;99241.19;;;11.43;100.00
56912;BME280;42800;53.928;27.662;2022-09-23T09:52:19;99239.25;;;10.98;100.00
56912;BME280;42800;53.928;27.662;2022-09-23T09:54:46;99217.66;;;11.19;100.00
56912;BME280;42800;53.928;27.662;2022-09-23T09:57:20;99245.09;;;11.42;100.00
56912;BME280;42800;53.928;27.662;2022-09-23T09:59:51;99264.38;;;11.23;100.00
56912;BME280;42800;53.928;27.662;2022-09-23T10:02:24;99318.41;;;11.42;100.00
56912;BME280;42800;53.928;27.662;2022-09-23T10:04:59;99331.53;;;11.29;100.00
56912;BME280;42800;53.928;27.662;2022-09-23T10:07:28;99350.31;;;11.27;100.00
56912;BME280;42800;53.928;27.662;2022-09-23T10:09:56;99387.84;;;11.00;100.00
56912;BME280;42800;53.928;27.662;2022-09-23T10:12:26;99410.56;;;10.81;100.00
56912;BME280;42800;53.928;27.662;2022-09-23T10:14:55;99411.44;;;11.04;100.00
56912;BME280;42800;53.928;27.662;2022-09-23T10:17:23;99419.66;;;11.04;100.00
56912;BME280;42800;53.928;27.662;2022-09-23T10:19:53;99405.28;;;10.92;100.00
56912;BME280;42800;53.928;27.662;2022-09-23T10:22:28;99425.72;;;10.94;100.00
56912;BME280;42800;53.928;27.662;2022-09-23T10:24:58;99409.47;;;10.66;100.00
56912;BME280;42800;53.928;27.662;2022-09-23T10:27:29;99436.75;;;10.78;100.00
56912;BME280;42800;53.928;27.662;2022-09-23T10:29:57;99449.63;;;10.94;100.00
56912;BME280;42800;53.928;27.662;2022-09-23T10:32:27;99426.09;;;10.73;100.00
56912;BME280;42800;53.928;27.662;2022-09-23T10:34:56;99409.16;;;11.29;100.00
56912;BME280;42800;53.928;27.662;2022-09-23T10:37:31;99376.78;;;11.39;100.00
56912;BME280;42800;53.928;27.662;2022-09-23T10:39:58;99354.94;;;10.80;100.00
56912;BME280;42800;53.928;27.662;2022-09-23T10:42:53;99398.41;;;10.63;100.00
56912;BME280;42800;53.928;27.662;2022-09-23T10:45:45;99428.81;;;10.93;100.00
56912;BME280;42800;53.928;27.662;2022-09-23T10:48:39;99379.50;;;11.16;100.00
56912;BME280;42800;53.928;27.662;2022-09-23T10:51:14;99386.31;;;11.02;100.00
56912;BME280;42800;53.928;27.662;2022-09-23T10:53:52;99379.03;;;10.91;100.00
56912;BME280;42800;53.928;27.662;2022-09-23T10:56:29;99401.63;;;10.84;100.00
56912;BME280;42800;53.928;27.662;2022-09-23T10:59:29;99404.28;;;10.61;100.00
56912;BME280;42800;53.928;27.662;2022-09-23T11:02:10;99421.53;;;10.81;100.00
56912;BME280;42800;53.928;27.662;2022-09-23T11:07:38;99395.63;;;10.98;100.00
56912;BME280;42800;53.928;27.662;2022-09-23T11:10:21;99396.84;;;11.00;100.00
56912;BME280;42800;53.928;27.662;2022-09-23T11:12:59;99339.75;;;11.29;100.00
56912;BME280;42800;53.928;27.662;2022-09-23T11:15:39;99325.28;;;11.55;100.00
56912;BME280;42800;53.928;27.662;2022-09-23T11:18:20;99201.44;;;11.87;100.00
56912;BME280;42800;53.928;27.662;2022-09-23T11:20:58;99173.28;;;11.67;100.00
56912;BME280;42800;53.928;27.662;2022-09-23T11:23:39;99104.28;;;12.02;100.00
56912;BME280;42800;53.928;27.662;2022-09-23T11:26:19;99044.31;;;12.11;100.00
56912;BME280;42800;53.928;27.662;2022-09-23T11:29:03;98995.75;;;12.26;100.00
56912;BME280;42800;53.928;27.662;2022-09-23T11:31:36;98896.91;;;12.40;100.00
56912;BME280;42800;53.928;27.662;2022-09-23T11:34:37;98813.28;;;12.41;100.00
56912;BME280;42800;53.928;27.662;2022-09-23T11:37:10;98712.84;;;12.90;100.00
56912;BME280;42800;53.928;27.662;2022-09-23T11:39:42;98701.41;;;12.63;100.00
56912;BME280;42800;53.928;27.662;2022-09-23T11:42:18;98674.63;;;12.46;100.00
56912;BME280;42800;53.928;27.662;2022-09-23T11:44:50;98598.84;;;12.59;100.00
56912;BME280;42800;53.928;27.662;2022-09-23T11:47:22;98582.75;;;12.65;100.00
56912;BME280;42800;53.928;27.662;2022-09-23T11:49:54;98585.09;;;12.48;100.00
56912;BME280;42800;53.928;27.662;2022-09-23T11:52:28;98649.13;;;12.53;100.00
56912;BME280;42800;53.928;27.662;2022-09-23T11:55:00;98559.56;;;12.52;100.00
56912;BME280;42800;53.928;27.662;2022-09-23T11:57:32;98529.34;;;12.52;100.00
56912;BME280;42800;53.928;27.662;2022-09-23T12:00:03;98552.13;;;12.70;100.00
56912;BME280;42800;53.928;27.662;2022-09-23T12:02:43;98584.34;;;12.87;100.00
56912;BME280;42800;53.928;27.662;2022-09-23T12:05:17;98592.16;;;12.92;100.00
56912;BME280;42800;53.928;27.662;2022-09-23T12:07:50;98522.94;;;13.19;100.00
56912;BME280;42800;53.928;27.662;2022-09-23T12:10:20;98389.22;;;13.32;100.00
56912;BME280;42800;53.928;27.662;2022-09-23T12:12:57;98322.22;;;12.87;100.00
56912;BME280;42800;53.928;27.662;2022-09-23T12:15:42;98327.28;;;12.92;100.00
56912;BME280;42800;53.928;27.662;2022-09-23T12:18:29;98290.16;;;13.29;100.00
56912;BME280;42800;53.928;27.662;2022-09-23T12:21:24;98296.44;;;13.33;100.00
56912;BME280;42800;53.928;27.662;2022-09-23T12:24:06;98276.53;;;13.04;100.00
56912;BME280;42800;53.928;27.662;2022-09-23T12:26:41;98208.84;;;13.17;100.00
56912;BME280;42800;53.928;27.662;2022-09-23T12:29:10;98173.63;;;13.42;100.00
56912;BME280;42800;53.928;27.662;2022-09-23T12:31:39;98204.06;;;13.21;100.00
56912;BME280;42800;53.928;27.662;2022-09-23T12:34:21;98175.03;;;13.61;100.00
56912;BME280;42800;53.928;27.662;2022-09-23T12:36:49;98154.84;;;13.72;100.00
56912;BME280;42800;53.928;27.662;2022-09-23T12:39:18;98153.81;;;13.93;100.00
56912;BME280;42800;53.928;27.662;2022-09-23T12:41:55;98122.66;;;13.24;100.00
56912;BME280;42800;53.928;27.662;2022-09-23T12:44:30;98110.94;;;13.16;100.00
56912;BME280;42800;53.928;27.662;2022-09-23T12:47:28;98261.59;;;12.20;100.00
56912;BME280;42800;53.928;27.662;2022-09-23T12:49:56;98281.31;;;11.87;100.00
56912;BME280;42800;53.928;27.662;2022-09-23T12:52:25;98433.41;;;11.36;100.00
56912;BME280;42800;53.928;27.662;2022-09-23T12:54:54;98588.50;;;11.08;100.00
56912;BME280;42800;53.928;27.662;2022-09-23T12:57:41;98741.28;;;11.04;100.00
56912;BME280;42800;53.928;27.662;2022-09-23T13:00:21;98843.25;;;11.10;100.00
56912;BME280;42800;53.928;27.662;2022-09-23T13:02:55;98886.03;;;10.84;100.00
56912;BME280;42800;53.928;27.662;2022-09-23T13:05:47;99085.31;;;10.50;100.00
56912;BME280;42800;53.928;27.662;2022-09-23T13:08:36;99301.47;;;10.51;100.00